sensor_id;sensor_type;location;lat;lon;timestamp;P1;durP1;ratioP1;P2;durP2;ratioP2
1048;SDS011;513;51.444;7.196;2022-11-15T00:00:29;11.50;;;7.83;;
1048;SDS011;513;51.444;7.196;2022-11-15T00:02:55;9.77;;;7.20;;
1048;SDS011;513;51.444;7.196;2022-11-15T00:05:22;11.37;;;7.13;;
1048;SDS011;513;51.444;7.196;2022-11-15T00:07:51;15.03;;;7.03;;
1048;SDS011;513;51.444;7.196;2022-11-15T00:10:17;10.53;;;6.93;;
1048;SDS011;513;51.444;7.196;2022-11-15T00:12:44;12.67;;;7.67;;
1048;SDS011;513;51.444;7.196;2022-11-15T00:15:10;10.83;;;7.53;;
1048;SDS011;513;51.444;7.196;2022-11-15T00:17:37;8.30;;;6.63;;
1048;SDS011;513;51.444;7.196;2022-11-15T00:20:04;12.30;;;6.87;;
1048;SDS011;513;51.444;7.196;2022-11-15T00:22:32;12.50;;;6.90;;
1048;SDS011;513;51.444;7.196;2022-11-15T00:25:00;10.97;;;7.20;;
1048;SDS011;513;51.444;7.196;2022-11-15T00:27:27;10.77;;;6.57;;
1048;SDS011;513;51.444;7.196;2022-11-15T00:29:53;11.73;;;6.93;;
1048;SDS011;513;51.444;7.196;2022-11-15T00:32:20;10.90;;;6.83;;
1048;SDS011;513;51.444;7.196;2022-11-15T00:34:47;9.17;;;6.90;;
1048;SDS011;513;51.444;7.196;2022-11-15T00:37:13;9.83;;;6.83;;
1048;SDS011;513;51.444;7.196;2022-11-15T00:39:40;9.00;;;6.70;;
1048;SDS011;513;51.444;7.196;2022-11-15T00:42:08;9.87;;;6.30;;
1048;SDS011;513;51.444;7.196;2022-11-15T00:44:35;10.90;;;6.73;;
1048;SDS011;513;51.444;7.196;2022-11-15T00:47:01;8.83;;;7.03;;
1048;SDS011;513;51.444;7.196;2022-11-15T00:49:28;9.20;;;6.57;;
1048;SDS011;513;51.444;7.196;2022-11-15T00:51:54;9.00;;;6.30;;
1048;SDS011;513;51.444;7.196;2022-11-15T00:54:21;10.43;;;6.57;;
1048;SDS011;513;51.444;7.196;2022-11-15T00:56:48;15.23;;;6.67;;
1048;SDS011;513;51.444;7.196;2022-11-15T00:59:16;12.60;;;6.63;;
1048;SDS011;513;51.444;7.196;2022-11-15T01:01:42;9.03;;;6.00;;
1048;SDS011;513;51.444;7.196;2022-11-15T01:04:09;8.23;;;6.50;;
1048;SDS011;513;51.444;7.196;2022-11-15T01:06:36;8.07;;;6.07;;
1048;SDS011;513;51.444;7.196;2022-11-15T01:09:02;9.67;;;6.10;;
1048;SDS011;513;51.444;7.196;2022-11-15T01:11:29;8.87;;;6.13;;
1048;SDS011;513;51.444;7.196;2022-11-15T01:13:56;9.17;;;6.00;;
1048;SDS011;513;51.444;7.196;2022-11-15T01:16:24;8.73;;;5.83;;
1048;SDS011;513;51.444;7.196;2022-11-15T01:18:50;8.67;;;5.23;;
1048;SDS011;513;51.444;7.196;2022-11-15T01:21:18;8.30;;;6.00;;
1048;SDS011;513;51.444;7.196;2022-11-15T01:23:45;11.63;;;6.97;;
1048;SDS011;513;51.444;7.196;2022-11-15T01:26:12;9.87;;;6.37;;
1048;SDS011;513;51.444;7.196;2022-11-15T01:28:41;9.47;;;6.17;;
1048;SDS011;513;51.444;7.196;2022-11-15T01:31:09;10.60;;;5.80;;
1048;SDS011;513;51.444;7.196;2022-11-15T01:33:39;8.93;;;6.07;;
1048;SDS011;513;51.444;7.196;2022-11-15T01:36:07;8.90;;;5.60;;
1048;SDS011;513;51.444;7.196;2022-11-15T01:38:36;9.03;;;5.60;;
1048;SDS011;513;51.444;7.196;2022-11-15T01:41:03;9.87;;;5.67;;
1048;SDS011;513;51.444;7.196;2022-11-15T01:43:31;9.27;;;6.10;;
1048;SDS011;513;51.444;7.196;2022-11-15T01:46:00;9.37;;;5.80;;
1048;SDS011;513;51.444;7.196;2022-11-15T01:48:30;7.10;;;5.53;;
1048;SDS011;513;51.444;7.196;2022-11-15T01:51:02;8.87;;;6.00;;
1048;SDS011;513;51.444;7.196;2022-11-15T01:53:32;12.83;;;5.57;;
1048;SDS011;513;51.444;7.196;2022-11-15T01:56:02;7.80;;;5.63;;
1048;SDS011;513;51.444;7.196;2022-11-15T01:58:32;9.30;;;5.47;;
1048;SDS011;513;51.444;7.196;2022-11-15T02:01:00;10.27;;;6.03;;
1048;SDS011;513;51.444;7.196;2022-11-15T02:03:30;7.40;;;5.47;;
1048;SDS011;513;51.444;7.196;2022-11-15T02:06:04;8.77;;;4.90;;
1048;SDS011;513;51.444;7.196;2022-11-15T02:08:31;10.00;;;5.30;;
1048;SDS011;513;51.444;7.196;2022-11-15T02:10:58;9.10;;;5.40;;
1048;SDS011;513;51.444;7.196;2022-11-15T02:13:24;7.53;;;5.07;;
1048;SDS011;513;51.444;7.196;2022-11-15T02:15:56;6.50;;;5.50;;
1048;SDS011;513;51.444;7.196;2022-11-15T02:18:31;6.93;;;5.43;;
1048;SDS011;513;51.444;7.196;2022-11-15T02:21:09;8.23;;;5.50;;
1048;SDS011;513;51.444;7.196;2022-11-15T02:29:39;8.37;;;5.40;;
1048;SDS011;513;51.444;7.196;2022-11-15T02:32:22;7.40;;;5.27;;
1048;SDS011;513;51.444;7.196;2022-11-15T02:35:00;6.93;;;4.90;;
1048;SDS011;513;51.444;7.196;2022-11-15T02:37:31;13.40;;;5.10;;
1048;SDS011;513;51.444;7.196;2022-11-15T02:40:06;6.57;;;5.40;;
1048;SDS011;513;51.444;7.196;2022-11-15T02:42:39;7.43;;;5.20;;
1048;SDS011;513;51.444;7.196;2022-11-15T02:45:29;11.23;;;5.63;;
1048;SDS011;513;51.444;7.196;2022-11-15T02:48:02;7.30;;;5.47;;
1048;SDS011;513;51.444;7.196;2022-11-15T02:50:31;11.90;;;5.83;;
1048;SDS011;513;51.444;7.196;2022-11-15T02:52:59;10.73;;;5.77;;
1048;SDS011;513;51.444;7.196;2022-11-15T02:55:27;10.47;;;6.27;;
1048;SDS011;513;51.444;7.196;2022-11-15T02:57:59;11.03;;;6.03;;
1048;SDS011;513;51.444;7.196;2022-11-15T03:00:50;8.13;;;6.07;;
1048;SDS011;513;51.444;7.196;2022-11-15T03:03:37;10.37;;;6.90;;
1048;SDS011;513;51.444;7.196;2022-11-15T03:06:18;8.63;;;6.37;;
1048;SDS011;513;51.444;7.196;2022-11-15T03:08:54;11.27;;;6.43;;
1048;SDS011;513;51.444;7.196;2022-11-15T03:11:27;7.43;;;6.27;;
1048;SDS011;513;51.444;7.196;2022-11-15T03:14:00;10.63;;;6.50;;
1048;SDS011;513;51.444;7.196;2022-11-15T03:16:34;15.17;;;7.67;;
1048;SDS011;513;51.444;7.196;2022-11-15T03:19:06;9.53;;;6.60;;
1048;SDS011;513;51.444;7.196;2022-11-15T03:21:39;9.93;;;6.37;;
1048;SDS011;513;51.444;7.196;2022-11-15T03:24:06;8.57;;;6.43;;
1048;SDS011;513;51.444;7.196;2022-11-15T03:26:34;9.83;;;6.97;;
1048;SDS011;513;51.444;7.196;2022-11-15T03:29:04;9.67;;;6.77;;
1048;SDS011;513;51.444;7.196;2022-11-15T03:31:36;11.37;;;6.60;;
1048;SDS011;513;51.444;7.196;2022-11-15T03:34:19;9.90;;;6.47;;
1048;SDS011;513;51.444;7.196;2022-11-15T03:36:52;10.27;;;6.10;;
1048;SDS011;513;51.444;7.196;2022-11-15T03:39:19;9.13;;;6.20;;
1048;SDS011;513;51.444;7.196;2022-11-15T03:41:47;8.07;;;5.73;;
1048;SDS011;513;51.444;7.196;2022-11-15T03:44:21;11.53;;;6.60;;
1048;SDS011;513;51.444;7.196;2022-11-15T03:47:00;10.57;;;5.93;;
1048;SDS011;513;51.444;7.196;2022-11-15T03:49:34;6.70;;;5.00;;
1048;SDS011;513;51.444;7.196;2022-11-15T03:52:02;9.40;;;5.83;;
1048;SDS011;513;51.444;7.196;2022-11-15T03:54:30;10.10;;;5.70;;
1048;SDS011;513;51.444;7.196;2022-11-15T03:56:57;7.97;;;6.07;;
1048;SDS011;513;51.444;7.196;2022-11-15T03:59:23;8.73;;;6.00;;
1048;SDS011;513;51.444;7.196;2022-11-15T04:01:50;7.57;;;5.57;;
1048;SDS011;513;51.444;7.196;2022-11-15T04:04:17;8.20;;;5.40;;
1048;SDS011;513;51.444;7.196;2022-11-15T04:06:45;7.47;;;5.40;;
1048;SDS011;513;51.444;7.196;2022-11-15T04:09:12;8.17;;;5.73;;
1048;SDS011;513;51.444;7.196;2022-11-15T04:11:39;7.90;;;5.30;;
1048;SDS011;513;51.444;7.196;2022-11-15T04:14:06;9.53;;;6.10;;
1048;SDS011;513;51.444;7.196;2022-11-15T04:16:32;8.57;;;5.63;;
1048;SDS011;513;51.444;7.196;2022-11-15T04:18:59;8.27;;;5.87;;
1048;SDS011;513;51.444;7.196;2022-11-15T04:21:44;10.83;;;5.60;;
1048;SDS011;513;51.444;7.196;2022-11-15T04:24:29;7.47;;;5.43;;
1048;SDS011;513;51.444;7.196;2022-11-15T04:26:55;5.43;;;4.87;;
1048;SDS011;513;51.444;7.196;2022-11-15T04:29:22;7.53;;;5.73;;
1048;SDS011;513;51.444;7.196;2022-11-15T04:32:00;7.43;;;5.53;;
1048;SDS011;513;51.444;7.196;2022-11-15T04:34:27;7.13;;;5.30;;
1048;SDS011;513;51.444;7.196;2022-11-15T04:36:55;7.33;;;5.43;;
1048;SDS011;513;51.444;7.196;2022-11-15T04:39:37;8.47;;;6.07;;
1048;SDS011;513;51.444;7.196;2022-11-15T04:42:04;8.43;;;5.47;;
1048;SDS011;513;51.444;7.196;2022-11-15T04:44:30;6.80;;;5.40;;
1048;SDS011;513;51.444;7.196;2022-11-15T04:46:58;8.53;;;5.60;;
1048;SDS011;513;51.444;7.196;2022-11-15T04:49:25;8.53;;;5.80;;
1048;SDS011;513;51.444;7.196;2022-11-15T04:51:52;8.30;;;5.10;;
1048;SDS011;513;51.444;7.196;2022-11-15T04:54:20;10.77;;;6.40;;
1048;SDS011;513;51.444;7.196;2022-11-15T04:56:46;7.20;;;5.73;;
1048;SDS011;513;51.444;7.196;2022-11-15T04:59:13;7.37;;;5.23;;
1048;SDS011;513;51.444;7.196;2022-11-15T05:01:39;8.67;;;5.47;;
1048;SDS011;513;51.444;7.196;2022-11-15T05:04:06;7.87;;;6.07;;
1048;SDS011;513;51.444;7.196;2022-11-15T05:06:44;9.27;;;5.67;;
1048;SDS011;513;51.444;7.196;2022-11-15T05:09:11;8.03;;;5.47;;
1048;SDS011;513;51.444;7.196;2022-11-15T05:11:40;8.37;;;5.97;;
1048;SDS011;513;51.444;7.196;2022-11-15T05:14:07;8.83;;;5.90;;
1048;SDS011;513;51.444;7.196;2022-11-15T05:16:34;8.80;;;6.30;;
1048;SDS011;513;51.444;7.196;2022-11-15T05:19:01;8.60;;;5.83;;
1048;SDS011;513;51.444;7.196;2022-11-15T05:21:27;7.57;;;5.87;;
1048;SDS011;513;51.444;7.196;2022-11-15T05:23:55;9.93;;;6.33;;
1048;SDS011;513;51.444;7.196;2022-11-15T05:26:21;7.60;;;5.87;;
1048;SDS011;513;51.444;7.196;2022-11-15T05:28:52;11.33;;;6.37;;
1048;SDS011;513;51.444;7.196;2022-11-15T05:31:20;7.77;;;6.30;;
1048;SDS011;513;51.444;7.196;2022-11-15T05:33:48;8.67;;;6.00;;
1048;SDS011;513;51.444;7.196;2022-11-15T05:36:17;8.97;;;6.20;;
1048;SDS011;513;51.444;7.196;2022-11-15T05:38:47;8.40;;;6.03;;
1048;SDS011;513;51.444;7.196;2022-11-15T05:41:14;8.07;;;6.37;;
1048;SDS011;513;51.444;7.196;2022-11-15T05:43:43;10.10;;;6.43;;
1048;SDS011;513;51.444;7.196;2022-11-15T05:46:11;8.30;;;5.83;;
1048;SDS011;513;51.444;7.196;2022-11-15T05:48:39;9.53;;;6.07;;
1048;SDS011;513;51.444;7.196;2022-11-15T05:51:09;9.10;;;6.37;;
1048;SDS011;513;51.444;7.196;2022-11-15T05:53:37;8.23;;;5.77;;
1048;SDS011;513;51.444;7.196;2022-11-15T05:56:04;7.37;;;5.93;;
1048;SDS011;513;51.444;7.196;2022-11-15T05:58:31;10.67;;;6.27;;
1048;SDS011;513;51.444;7.196;2022-11-15T06:00:58;9.13;;;7.17;;
1048;SDS011;513;51.444;7.196;2022-11-15T06:03:27;6.93;;;6.03;;
1048;SDS011;513;51.444;7.196;2022-11-15T06:05:54;8.60;;;5.70;;
1048;SDS011;513;51.444;7.196;2022-11-15T06:08:22;7.87;;;6.10;;
1048;SDS011;513;51.444;7.196;2022-11-15T06:10:48;9.33;;;6.50;;
1048;SDS011;513;51.444;7.196;2022-11-15T06:13:15;7.00;;;5.90;;
1048;SDS011;513;51.444;7.196;2022-11-15T06:15:41;9.83;;;6.80;;
1048;SDS011;513;51.444;7.196;2022-11-15T06:18:08;10.47;;;5.90;;
1048;SDS011;513;51.444;7.196;2022-11-15T06:20:36;8.80;;;6.20;;
1048;SDS011;513;51.444;7.196;2022-11-15T06:23:03;7.87;;;5.50;;
1048;SDS011;513;51.444;7.196;2022-11-15T06:25:30;6.30;;;4.97;;
1048;SDS011;513;51.444;7.196;2022-11-15T06:27:58;7.47;;;5.47;;
1048;SDS011;513;51.444;7.196;2022-11-15T06:30:25;9.87;;;5.47;;
1048;SDS011;513;51.444;7.196;2022-11-15T06:32:57;8.10;;;5.17;;
1048;SDS011;513;51.444;7.196;2022-11-15T06:35:26;6.63;;;4.90;;
1048;SDS011;513;51.444;7.196;2022-11-15T06:37:54;5.50;;;3.77;;
1048;SDS011;513;51.444;7.196;2022-11-15T06:40:21;5.63;;;4.20;;
1048;SDS011;513;51.444;7.196;2022-11-15T06:42:48;5.87;;;4.20;;
1048;SDS011;513;51.444;7.196;2022-11-15T06:45:15;7.20;;;3.80;;
1048;SDS011;513;51.444;7.196;2022-11-15T06:47:44;5.63;;;3.77;;
1048;SDS011;513;51.444;7.196;2022-11-15T06:50:11;4.80;;;3.50;;
1048;SDS011;513;51.444;7.196;2022-11-15T06:52:38;3.80;;;3.20;;
1048;SDS011;513;51.444;7.196;2022-11-15T06:55:07;3.60;;;3.07;;
1048;SDS011;513;51.444;7.196;2022-11-15T06:57:35;4.47;;;3.53;;
1048;SDS011;513;51.444;7.196;2022-11-15T07:00:02;5.80;;;3.40;;
1048;SDS011;513;51.444;7.196;2022-11-15T07:02:30;3.63;;;3.17;;
1048;SDS011;513;51.444;7.196;2022-11-15T07:04:57;4.53;;;3.53;;
1048;SDS011;513;51.444;7.196;2022-11-15T07:07:24;4.23;;;3.43;;
1048;SDS011;513;51.444;7.196;2022-11-15T07:09:50;4.53;;;3.30;;
1048;SDS011;513;51.444;7.196;2022-11-15T07:12:18;4.93;;;2.97;;
1048;SDS011;513;51.444;7.196;2022-11-15T07:14:45;5.70;;;3.00;;
1048;SDS011;513;51.444;7.196;2022-11-15T07:17:12;3.10;;;2.80;;
1048;SDS011;513;51.444;7.196;2022-11-15T07:19:38;4.07;;;3.13;;
1048;SDS011;513;51.444;7.196;2022-11-15T07:22:05;3.53;;;2.93;;
1048;SDS011;513;51.444;7.196;2022-11-15T07:24:32;5.20;;;2.80;;
1048;SDS011;513;51.444;7.196;2022-11-15T07:26:58;3.40;;;2.57;;
1048;SDS011;513;51.444;7.196;2022-11-15T07:29:26;3.03;;;2.23;;
1048;SDS011;513;51.444;7.196;2022-11-15T07:31:53;7.13;;;2.53;;
1048;SDS011;513;51.444;7.196;2022-11-15T07:34:20;2.97;;;2.53;;
1048;SDS011;513;51.444;7.196;2022-11-15T07:36:47;5.73;;;2.43;;
1048;SDS011;513;51.444;7.196;2022-11-15T07:39:14;3.07;;;2.47;;
1048;SDS011;513;51.444;7.196;2022-11-15T07:41:40;2.83;;;2.33;;
1048;SDS011;513;51.444;7.196;2022-11-15T07:44:08;3.07;;;2.20;;
1048;SDS011;513;51.444;7.196;2022-11-15T07:46:36;3.77;;;2.47;;
1048;SDS011;513;51.444;7.196;2022-11-15T07:49:03;3.50;;;2.43;;
1048;SDS011;513;51.444;7.196;2022-11-15T07:51:29;4.20;;;2.50;;
1048;SDS011;513;51.444;7.196;2022-11-15T07:53:56;2.77;;;2.30;;
1048;SDS011;513;51.444;7.196;2022-11-15T07:56:23;3.03;;;2.47;;
1048;SDS011;513;51.444;7.196;2022-11-15T07:58:49;3.27;;;2.20;;
1048;SDS011;513;51.444;7.196;2022-11-15T08:01:16;2.63;;;2.10;;
1048;SDS011;513;51.444;7.196;2022-11-15T08:03:44;3.73;;;2.37;;
1048;SDS011;513;51.444;7.196;2022-11-15T08:06:11;2.77;;;2.30;;
1048;SDS011;513;51.444;7.196;2022-11-15T08:08:37;3.03;;;2.53;;
1048;SDS011;513;51.444;7.196;2022-11-15T08:11:04;2.87;;;2.10;;
1048;SDS011;513;51.444;7.196;2022-11-15T08:13:31;2.63;;;2.10;;
1048;SDS011;513;51.444;7.196;2022-11-15T08:15:58;2.97;;;2.33;;
1048;SDS011;513;51.444;7.196;2022-11-15T08:18:25;3.33;;;2.10;;
1048;SDS011;513;51.444;7.196;2022-11-15T08:20:53;3.37;;;2.07;;
1048;SDS011;513;51.444;7.196;2022-11-15T08:23:24;2.13;;;1.87;;
1048;SDS011;513;51.444;7.196;2022-11-15T08:25:50;2.63;;;1.90;;
1048;SDS011;513;51.444;7.196;2022-11-15T08:28:17;3.60;;;1.80;;
1048;SDS011;513;51.444;7.196;2022-11-15T08:30:44;3.90;;;2.20;;
1048;SDS011;513;51.444;7.196;2022-11-15T08:33:11;2.57;;;2.13;;
1048;SDS011;513;51.444;7.196;2022-11-15T08:35:38;2.30;;;1.97;;
1048;SDS011;513;51.444;7.196;2022-11-15T08:38:07;2.67;;;1.83;;
1048;SDS011;513;51.444;7.196;2022-11-15T08:40:33;2.37;;;1.80;;
1048;SDS011;513;51.444;7.196;2022-11-15T08:43:01;2.77;;;2.40;;
1048;SDS011;513;51.444;7.196;2022-11-15T08:45:27;2.20;;;1.80;;
1048;SDS011;513;51.444;7.196;2022-11-15T08:47:55;2.80;;;1.80;;
1048;SDS011;513;51.444;7.196;2022-11-15T08:50:22;2.47;;;2.00;;
1048;SDS011;513;51.444;7.196;2022-11-15T08:52:49;2.33;;;1.70;;
1048;SDS011;513;51.444;7.196;2022-11-15T08:55:17;2.63;;;1.93;;
1048;SDS011;513;51.444;7.196;2022-11-15T08:57:43;1.93;;;1.60;;
1048;SDS011;513;51.444;7.196;2022-11-15T09:00:10;2.77;;;1.77;;
1048;SDS011;513;51.444;7.196;2022-11-15T09:02:38;2.53;;;1.60;;
1048;SDS011;513;51.444;7.196;2022-11-15T09:05:06;7.33;;;1.83;;
1048;SDS011;513;51.444;7.196;2022-11-15T09:07:34;1.40;;;1.20;;
1048;SDS011;513;51.444;7.196;2022-11-15T09:10:01;2.93;;;1.37;;
1048;SDS011;513;51.444;7.196;2022-11-15T09:12:29;3.57;;;1.33;;
1048;SDS011;513;51.444;7.196;2022-11-15T09:14:57;2.40;;;1.47;;
1048;SDS011;513;51.444;7.196;2022-11-15T09:17:23;1.93;;;1.43;;
1048;SDS011;513;51.444;7.196;2022-11-15T09:19:50;2.97;;;1.60;;
1048;SDS011;513;51.444;7.196;2022-11-15T09:22:17;3.80;;;1.70;;
1048;SDS011;513;51.444;7.196;2022-11-15T09:24:44;2.77;;;1.40;;
1048;SDS011;513;51.444;7.196;2022-11-15T09:27:10;1.93;;;1.30;;
1048;SDS011;513;51.444;7.196;2022-11-15T09:29:39;1.63;;;1.30;;
1048;SDS011;513;51.444;7.196;2022-11-15T09:32:06;2.07;;;1.70;;
1048;SDS011;513;51.444;7.196;2022-11-15T09:34:32;2.27;;;1.50;;
1048;SDS011;513;51.444;7.196;2022-11-15T09:36:59;2.77;;;1.30;;
1048;SDS011;513;51.444;7.196;2022-11-15T09:39:26;1.57;;;1.30;;
1048;SDS011;513;51.444;7.196;2022-11-15T09:42:05;2.33;;;1.33;;
1048;SDS011;513;51.444;7.196;2022-11-15T09:44:56;1.90;;;1.47;;
1048;SDS011;513;51.444;7.196;2022-11-15T09:47:46;1.90;;;1.17;;
1048;SDS011;513;51.444;7.196;2022-11-15T09:50:36;1.90;;;1.20;;
1048;SDS011;513;51.444;7.196;2022-11-15T09:53:09;3.13;;;1.40;;
1048;SDS011;513;51.444;7.196;2022-11-15T09:55:40;3.13;;;1.37;;
1048;SDS011;513;51.444;7.196;2022-11-15T09:58:15;2.80;;;1.40;;
1048;SDS011;513;51.444;7.196;2022-11-15T10:00:48;1.07;;;0.90;;
1048;SDS011;513;51.444;7.196;2022-11-15T10:03:19;3.13;;;1.00;;
1048;SDS011;513;51.444;7.196;2022-11-15T10:05:54;3.37;;;1.47;;
1048;SDS011;513;51.444;7.196;2022-11-15T10:08:25;2.17;;;0.90;;
1048;SDS011;513;51.444;7.196;2022-11-15T10:11:02;1.33;;;1.00;;
1048;SDS011;513;51.444;7.196;2022-11-15T10:13:32;3.63;;;1.47;;
1048;SDS011;513;51.444;7.196;2022-11-15T10:16:03;3.60;;;0.80;;
1048;SDS011;513;51.444;7.196;2022-11-15T10:18:41;2.30;;;1.20;;
1048;SDS011;513;51.444;7.196;2022-11-15T10:21:15;2.00;;;1.30;;
1048;SDS011;513;51.444;7.196;2022-11-15T10:23:45;2.07;;;1.00;;
1048;SDS011;513;51.444;7.196;2022-11-15T10:26:13;1.60;;;0.93;;
1048;SDS011;513;51.444;7.196;2022-11-15T10:28:42;2.30;;;1.10;;
1048;SDS011;513;51.444;7.196;2022-11-15T10:31:21;1.87;;;1.27;;
1048;SDS011;513;51.444;7.196;2022-11-15T10:33:49;1.40;;;1.03;;
1048;SDS011;513;51.444;7.196;2022-11-15T10:36:18;0.97;;;0.83;;
1048;SDS011;513;51.444;7.196;2022-11-15T10:38:51;1.20;;;0.97;;
1048;SDS011;513;51.444;7.196;2022-11-15T10:41:20;1.70;;;1.20;;
1048;SDS011;513;51.444;7.196;2022-11-15T10:44:01;1.20;;;1.10;;
1048;SDS011;513;51.444;7.196;2022-11-15T10:46:36;1.83;;;1.10;;
1048;SDS011;513;51.444;7.196;2022-11-15T10:49:14;1.40;;;0.90;;
1048;SDS011;513;51.444;7.196;2022-11-15T10:51:42;1.57;;;1.00;;
1048;SDS011;513;51.444;7.196;2022-11-15T10:54:14;2.33;;;1.20;;
1048;SDS011;513;51.444;7.196;2022-11-15T10:56:48;1.50;;;1.00;;
1048;SDS011;513;51.444;7.196;2022-11-15T10:59:20;2.10;;;1.13;;
1048;SDS011;513;51.444;7.196;2022-11-15T11:01:53;1.80;;;1.20;;
1048;SDS011;513;51.444;7.196;2022-11-15T11:04:20;1.87;;;1.23;;
1048;SDS011;513;51.444;7.196;2022-11-15T11:06:47;2.10;;;0.83;;
1048;SDS011;513;51.444;7.196;2022-11-15T11:09:23;1.10;;;0.80;;
1048;SDS011;513;51.444;7.196;2022-11-15T11:11:55;2.40;;;1.20;;
1048;SDS011;513;51.444;7.196;2022-11-15T11:14:22;2.70;;;1.10;;
1048;SDS011;513;51.444;7.196;2022-11-15T11:16:54;1.23;;;0.90;;
1048;SDS011;513;51.444;7.196;2022-11-15T11:19:39;2.60;;;0.90;;
1048;SDS011;513;51.444;7.196;2022-11-15T11:22:17;1.60;;;0.87;;
1048;SDS011;513;51.444;7.196;2022-11-15T11:24:51;2.73;;;1.17;;
1048;SDS011;513;51.444;7.196;2022-11-15T11:27:29;0.80;;;0.80;;
1048;SDS011;513;51.444;7.196;2022-11-15T11:30:10;1.63;;;0.90;;
1048;SDS011;513;51.444;7.196;2022-11-15T11:32:53;1.37;;;0.90;;
1048;SDS011;513;51.444;7.196;2022-11-15T11:35:32;2.90;;;1.03;;
1048;SDS011;513;51.444;7.196;2022-11-15T11:38:10;1.73;;;0.97;;
1048;SDS011;513;51.444;7.196;2022-11-15T11:40:50;2.23;;;1.20;;
1048;SDS011;513;51.444;7.196;2022-11-15T11:43:27;1.97;;;0.80;;
1048;SDS011;513;51.444;7.196;2022-11-15T11:46:06;1.87;;;0.97;;
1048;SDS011;513;51.444;7.196;2022-11-15T11:48:44;1.30;;;0.93;;
1048;SDS011;513;51.444;7.196;2022-11-15T11:51:17;3.03;;;1.00;;
1048;SDS011;513;51.444;7.196;2022-11-15T11:53:50;1.47;;;0.90;;
1048;SDS011;513;51.444;7.196;2022-11-15T11:56:25;1.63;;;0.87;;
1048;SDS011;513;51.444;7.196;2022-11-15T11:58:55;1.57;;;0.80;;
1048;SDS011;513;51.444;7.196;2022-11-15T12:01:26;3.40;;;0.93;;
1048;SDS011;513;51.444;7.196;2022-11-15T12:04:01;1.07;;;0.97;;
1048;SDS011;513;51.444;7.196;2022-11-15T12:06:32;1.67;;;0.97;;
1048;SDS011;513;51.444;7.196;2022-11-15T12:09:04;1.67;;;0.90;;
1048;SDS011;513;51.444;7.196;2022-11-15T12:11:42;0.87;;;0.73;;
1048;SDS011;513;51.444;7.196;2022-11-15T12:14:18;0.90;;;0.70;;
1048;SDS011;513;51.444;7.196;2022-11-15T12:16:53;1.77;;;0.60;;
1048;SDS011;513;51.444;7.196;2022-11-15T12:19:21;2.13;;;0.87;;
1048;SDS011;513;51.444;7.196;2022-11-15T12:21:49;2.90;;;0.80;;
1048;SDS011;513;51.444;7.196;2022-11-15T12:24:22;1.73;;;0.77;;
1048;SDS011;513;51.444;7.196;2022-11-15T12:26:53;1.97;;;0.70;;
1048;SDS011;513;51.444;7.196;2022-11-15T12:29:25;2.10;;;0.70;;
1048;SDS011;513;51.444;7.196;2022-11-15T12:31:56;1.83;;;0.80;;
1048;SDS011;513;51.444;7.196;2022-11-15T12:34:44;1.53;;;1.17;;
1048;SDS011;513;51.444;7.196;2022-11-15T12:40:21;3.07;;;1.33;;
1048;SDS011;513;51.444;7.196;2022-11-15T12:43:06;1.40;;;0.63;;
1048;SDS011;513;51.444;7.196;2022-11-15T12:45:51;0.90;;;0.80;;
1048;SDS011;513;51.444;7.196;2022-11-15T12:52:02;2.70;;;0.70;;
1048;SDS011;513;51.444;7.196;2022-11-15T12:54:50;1.63;;;1.00;;
1048;SDS011;513;51.444;7.196;2022-11-15T12:57:34;2.33;;;0.73;;
1048;SDS011;513;51.444;7.196;2022-11-15T13:00:19;1.37;;;0.70;;
1048;SDS011;513;51.444;7.196;2022-11-15T13:03:22;2.60;;;0.90;;
1048;SDS011;513;51.444;7.196;2022-11-15T13:06:00;1.37;;;0.63;;
1048;SDS011;513;51.444;7.196;2022-11-15T13:08:36;1.40;;;0.80;;
1048;SDS011;513;51.444;7.196;2022-11-15T13:17:26;1.43;;;0.90;;
1048;SDS011;513;51.444;7.196;2022-11-15T13:20:00;2.53;;;0.80;;
1048;SDS011;513;51.444;7.196;2022-11-15T13:23:00;1.00;;;0.83;;
1048;SDS011;513;51.444;7.196;2022-11-15T13:25:33;1.70;;;0.70;;
1048;SDS011;513;51.444;7.196;2022-11-15T13:28:20;1.53;;;0.67;;
1048;SDS011;513;51.444;7.196;2022-11-15T13:30:53;1.27;;;0.87;;
1048;SDS011;513;51.444;7.196;2022-11-15T13:33:22;2.30;;;0.80;;
1048;SDS011;513;51.444;7.196;2022-11-15T13:35:52;3.73;;;0.90;;
1048;SDS011;513;51.444;7.196;2022-11-15T13:38:25;4.20;;;0.90;;
1048;SDS011;513;51.444;7.196;2022-11-15T13:40:55;1.17;;;0.70;;
1048;SDS011;513;51.444;7.196;2022-11-15T13:43:26;2.93;;;0.90;;
1048;SDS011;513;51.444;7.196;2022-11-15T13:46:04;3.30;;;0.77;;
1048;SDS011;513;51.444;7.196;2022-11-15T13:48:32;1.33;;;0.73;;
1048;SDS011;513;51.444;7.196;2022-11-15T13:50:59;5.27;;;0.90;;
1048;SDS011;513;51.444;7.196;2022-11-15T13:53:27;1.97;;;0.70;;
1048;SDS011;513;51.444;7.196;2022-11-15T13:55:57;1.80;;;0.80;;
1048;SDS011;513;51.444;7.196;2022-11-15T13:58:25;1.90;;;0.83;;
1048;SDS011;513;51.444;7.196;2022-11-15T14:00:57;2.83;;;0.77;;
1048;SDS011;513;51.444;7.196;2022-11-15T14:03:27;4.60;;;1.00;;
1048;SDS011;513;51.444;7.196;2022-11-15T14:06:04;2.87;;;0.80;;
1048;SDS011;513;51.444;7.196;2022-11-15T14:08:35;1.93;;;1.03;;
1048;SDS011;513;51.444;7.196;2022-11-15T14:11:07;2.10;;;0.90;;
1048;SDS011;513;51.444;7.196;2022-11-15T14:13:36;3.03;;;1.13;;
1048;SDS011;513;51.444;7.196;2022-11-15T14:16:13;3.40;;;0.90;;
1048;SDS011;513;51.444;7.196;2022-11-15T14:18:42;1.73;;;1.00;;
1048;SDS011;513;51.444;7.196;2022-11-15T14:21:11;2.17;;;1.17;;
1048;SDS011;513;51.444;7.196;2022-11-15T14:23:38;1.70;;;1.20;;
1048;SDS011;513;51.444;7.196;2022-11-15T14:26:10;1.47;;;1.10;;
1048;SDS011;513;51.444;7.196;2022-11-15T14:28:52;3.53;;;1.00;;
1048;SDS011;513;51.444;7.196;2022-11-15T14:31:19;3.77;;;1.33;;
1048;SDS011;513;51.444;7.196;2022-11-15T14:33:46;3.37;;;1.50;;
1048;SDS011;513;51.444;7.196;2022-11-15T14:36:14;5.23;;;1.50;;
1048;SDS011;513;51.444;7.196;2022-11-15T14:38:41;3.50;;;1.50;;
1048;SDS011;513;51.444;7.196;2022-11-15T14:41:12;4.83;;;1.80;;
1048;SDS011;513;51.444;7.196;2022-11-15T14:43:44;3.50;;;1.60;;
1048;SDS011;513;51.444;7.196;2022-11-15T14:46:11;2.30;;;1.67;;
1048;SDS011;513;51.444;7.196;2022-11-15T14:48:38;2.27;;;1.60;;
1048;SDS011;513;51.444;7.196;2022-11-15T14:51:08;2.63;;;1.60;;
1048;SDS011;513;51.444;7.196;2022-11-15T14:53:37;2.57;;;1.70;;
1048;SDS011;513;51.444;7.196;2022-11-15T14:56:04;2.60;;;1.50;;
1048;SDS011;513;51.444;7.196;2022-11-15T14:58:32;3.97;;;2.03;;
1048;SDS011;513;51.444;7.196;2022-11-15T15:00:58;4.00;;;1.90;;
1048;SDS011;513;51.444;7.196;2022-11-15T15:03:25;3.20;;;1.77;;
1048;SDS011;513;51.444;7.196;2022-11-15T15:05:52;2.77;;;1.93;;
1048;SDS011;513;51.444;7.196;2022-11-15T15:08:19;3.23;;;1.87;;
1048;SDS011;513;51.444;7.196;2022-11-15T15:10:46;2.43;;;1.63;;
1048;SDS011;513;51.444;7.196;2022-11-15T15:13:15;1.80;;;1.50;;
1048;SDS011;513;51.444;7.196;2022-11-15T15:15:45;3.00;;;2.07;;
1048;SDS011;513;51.444;7.196;2022-11-15T15:18:13;3.00;;;1.70;;
1048;SDS011;513;51.444;7.196;2022-11-15T15:20:40;4.27;;;1.63;;
1048;SDS011;513;51.444;7.196;2022-11-15T15:23:10;1.77;;;1.60;;
1048;SDS011;513;51.444;7.196;2022-11-15T15:25:42;2.60;;;2.20;;
1048;SDS011;513;51.444;7.196;2022-11-15T15:28:10;3.47;;;1.60;;
1048;SDS011;513;51.444;7.196;2022-11-15T15:30:37;2.90;;;2.07;;
1048;SDS011;513;51.444;7.196;2022-11-15T15:33:05;2.70;;;2.00;;
1048;SDS011;513;51.444;7.196;2022-11-15T15:35:32;3.73;;;2.03;;
1048;SDS011;513;51.444;7.196;2022-11-15T15:38:00;2.70;;;1.57;;
1048;SDS011;513;51.444;7.196;2022-11-15T15:40:27;3.63;;;2.07;;
1048;SDS011;513;51.444;7.196;2022-11-15T15:42:55;3.27;;;1.57;;
1048;SDS011;513;51.444;7.196;2022-11-15T15:45:22;3.90;;;1.90;;
1048;SDS011;513;51.444;7.196;2022-11-15T15:47:50;2.83;;;1.87;;
1048;SDS011;513;51.444;7.196;2022-11-15T15:50:20;2.67;;;1.93;;
1048;SDS011;513;51.444;7.196;2022-11-15T15:52:48;2.53;;;1.87;;
1048;SDS011;513;51.444;7.196;2022-11-15T15:55:15;4.07;;;1.83;;
1048;SDS011;513;51.444;7.196;2022-11-15T15:57:42;3.23;;;1.87;;
1048;SDS011;513;51.444;7.196;2022-11-15T16:00:09;3.33;;;1.67;;
1048;SDS011;513;51.444;7.196;2022-11-15T16:02:36;3.97;;;1.90;;
1048;SDS011;513;51.444;7.196;2022-11-15T16:05:03;2.97;;;1.90;;